Time;durP1;ratioP1;P1;durP2;ratioP2;P2;SDS_P1;SDS_P2;PMS_P1;PMS_P2;Temp;Humidity;BMP_temperature;BMP_pressure;BME280_temperature;BME280_humidity;BME280_pressure;Samples;Min_cycle;Max_cycle;Signal;HPM_P1;HPM_P2
2022/01/15 00:02:45;;;;;;;32.97;13.57;;;;;;;;;;6259912;28;20048;-70
2022/01/15 00:05:45;;;;;;;31.80;12.00;;;;;;;;;;6269041;28;20370;-70
2022/01/15 00:08:46;;;;;;;26.08;12.30;;;;;;;;;;6268552;28;20381;-70
2022/01/15 00:11:46;;;;;;;33.40;13.85;;;;;;;;;;6265231;28;20025;-70
2022/01/15 00:14:46;;;;;;;29.15;10.82;;;;;;;;;;6264019;28;20477;-69
2022/01/15 00:17:51;;;;;;;30.15;12.05;;;;;;;;;;6253945;28;20025;-69
2022/01/15 00:20:51;;;;;;;33.03;11.40;;;;;;;;;;6246145;28;20067;-69
2022/01/15 00:23:52;;;;;;;26.67;9.98;;;;;;;;;;6247092;28;20021;-69
2022/01/15 00:26:52;;;;;;;26.90;11.50;;;;;;;;;;6246147;28;20025;-69
2022/01/15 00:29:52;;;;;;;18.70;8.50;;;;;;;;;;6242471;28;20040;-69
2022/01/15 00:32:53;;;;;;;20.90;7.68;;;;;;;;;;6243481;28;20049;-69
2022/01/15 00:35:53;;;;;;;19.25;9.60;;;;;;;;;;6243540;28;20435;-69
2022/01/15 00:38:53;;;;;;;28.83;9.82;;;;;;;;;;6252378;28;20436;-69
2022/01/15 00:41:54;;;;;;;23.23;7.63;;;;;;;;;;6267609;28;20029;-69
2022/01/15 00:44:55;;;;;;;21.73;9.10;;;;;;;;;;6259066;28;20053;-69
2022/01/15 00:47:56;;;;;;;20.67;9.15;;;;;;;;;;6258560;28;20027;-69
2022/01/15 00:50:56;;;;;;;21.08;9.15;;;;;;;;;;6267564;28;20032;-69
2022/01/15 00:53:56;;;;;;;22.02;8.25;;;;;;;;;;6268197;28;20021;-69
2022/01/15 00:56:56;;;;;;;23.33;8.10;;;;;;;;;;6260667;28;20600;-69
2022/01/15 00:59:57;;;;;;;28.83;10.07;;;;;;;;;;6248346;28;20024;-69
2022/01/15 01:02:57;;;;;;;24.17;9.57;;;;;;;;;;6261324;28;20013;-69
2022/01/15 01:05:57;;;;;;;23.88;7.22;;;;;;;;;;6248647;28;20451;-69
2022/01/15 01:08:57;;;;;;;23.60;8.27;;;;;;;;;;6246923;28;20025;-69
2022/01/15 01:12:09;;;;;;;23.77;9.00;;;;;;;;;;6264864;28;20017;-69
2022/01/15 01:24:57;;;;;;;24.30;7.80;;;;;;;;;;6243089;28;20397;-69
2022/01/15 01:28:05;;;;;;;26.48;10.55;;;;;;;;;;6248206;28;20124;-69
2022/01/15 01:34:10;;;;;;;28.23;9.13;;;;;;;;;;6242967;28;20095;-69
2022/01/15 01:37:24;;;;;;;26.92;10.80;;;;;;;;;;6242905;28;20030;-69
2022/01/15 01:40:37;;;;;;;26.42;10.02;;;;;;;;;;6256533;28;20020;-69
2022/01/15 01:46:46;;;;;;;17.88;7.75;;;;;;;;;;6262766;28;20040;-69
2022/01/15 01:49:46;;;;;;;24.02;7.18;;;;;;;;;;6254103;28;20032;-69
2022/01/15 01:52:47;;;;;;;15.32;7.13;;;;;;;;;;6251730;28;20033;-69
2022/01/15 01:55:48;;;;;;;32.70;9.10;;;;;;;;;;6248979;28;20052;-69
2022/01/15 01:58:48;;;;;;;23.08;7.72;;;;;;;;;;6271847;28;20090;-69
2022/01/15 02:01:48;;;;;;;24.42;9.90;;;;;;;;;;6261043;28;20628;-69
2022/01/15 02:04:49;;;;;;;14.55;6.82;;;;;;;;;;6247062;28;20021;-69
2022/01/15 02:07:49;;;;;;;20.00;8.18;;;;;;;;;;6246862;28;20032;-69
2022/01/15 02:10:49;;;;;;;22.88;7.57;;;;;;;;;;6251054;28;20033;-69
2022/01/15 02:13:50;;;;;;;26.35;9.05;;;;;;;;;;6245938;28;20021;-69
2022/01/15 02:16:50;;;;;;;22.80;9.43;;;;;;;;;;6247128;28;20521;-69
2022/01/15 02:20:10;;;;;;;23.20;7.88;;;;;;;;;;6266400;28;20378;-69
2022/01/15 02:26:39;;;;;;;15.82;7.80;;;;;;;;;;6254255;28;20029;-69
2022/01/15 02:29:40;;;;;;;35.65;9.25;;;;;;;;;;6264270;28;20118;-69
2022/01/15 02:32:40;;;;;;;26.55;8.77;;;;;;;;;;6270580;28;20426;-69
2022/01/15 02:35:41;;;;;;;21.45;10.43;;;;;;;;;;6270775;28;20040;-69
2022/01/15 02:38:42;;;;;;;24.67;8.40;;;;;;;;;;6270653;28;20473;-69
2022/01/15 02:41:42;;;;;;;36.88;11.25;;;;;;;;;;6262077;28;20235;-69
2022/01/15 02:44:44;;;;;;;38.22;10.73;;;;;;;;;;6270362;28;20507;-69
2022/01/15 02:48:02;;;;;;;28.10;10.73;;;;;;;;;;6270810;28;20029;-69
2022/01/15 02:51:03;;;;;;;36.55;11.30;;;;;;;;;;6269828;28;20365;-69
2022/01/15 02:54:04;;;;;;;30.52;8.18;;;;;;;;;;6251532;28;20417;-69
2022/01/15 02:57:06;;;;;;;31.90;11.50;;;;;;;;;;6258007;28;20017;-69
2022/01/15 03:00:07;;;;;;;33.72;11.35;;;;;;;;;;6269794;28;20062;-69
2022/01/15 03:03:07;;;;;;;17.40;7.72;;;;;;;;;;6264122;28;20370;-69
2022/01/15 03:06:11;;;;;;;21.83;8.65;;;;;;;;;;6269745;28;20024;-69
2022/01/15 03:09:12;;;;;;;23.15;9.45;;;;;;;;;;6269979;28;20492;-69
2022/01/15 03:12:12;;;;;;;26.45;6.78;;;;;;;;;;6250760;28;20018;-69
2022/01/15 03:15:18;;;;;;;13.60;6.32;;;;;;;;;;6245257;28;20503;-69
2022/01/15 03:18:18;;;;;;;36.08;11.15;;;;;;;;;;6245157;28;20021;-69
2022/01/15 03:21:18;;;;;;;15.18;7.70;;;;;;;;;;6247137;28;20413;-69
2022/01/15 03:24:19;;;;;;;26.83;8.32;;;;;;;;;;6244445;28;20071;-69
2022/01/15 03:27:23;;;;;;;30.42;8.85;;;;;;;;;;6249780;28;20453;-69
2022/01/15 03:30:24;;;;;;;24.30;9.73;;;;;;;;;;6244038;28;20112;-69
2022/01/15 03:33:24;;;;;;;22.38;8.13;;;;;;;;;;6244597;28;20444;-69
2022/01/15 03:36:24;;;;;;;26.40;10.70;;;;;;;;;;6260854;28;20519;-69
2022/01/15 03:39:24;;;;;;;28.10;7.82;;;;;;;;;;6269199;28;20023;-69
2022/01/15 03:42:25;;;;;;;22.23;8.82;;;;;;;;;;6268742;28;20102;-69
2022/01/15 03:45:25;;;;;;;27.35;12.60;;;;;;;;;;6256069;28;20472;-69
2022/01/15 03:48:25;;;;;;;26.92;10.18;;;;;;;;;;6263757;28;20025;-69
2022/01/15 03:51:26;;;;;;;21.20;9.85;;;;;;;;;;6268539;28;20048;-69
2022/01/15 03:54:26;;;;;;;11.48;7.75;;;;;;;;;;6268969;28;20417;-69
2022/01/15 03:57:26;;;;;;;25.13;11.23;;;;;;;;;;6269033;28;20066;-69
2022/01/15 04:00:27;;;;;;;32.50;9.98;;;;;;;;;;6248060;28;20488;-69
2022/01/15 04:03:27;;;;;;;27.73;8.65;;;;;;;;;;6264871;28;20064;-69
2022/01/15 04:06:27;;;;;;;15.95;7.25;;;;;;;;;;6267069;28;20272;-69
2022/01/15 04:09:28;;;;;;;29.75;11.82;;;;;;;;;;6268262;28;20024;-69
2022/01/15 04:12:28;;;;;;;19.63;7.13;;;;;;;;;;6264424;28;20090;-69
2022/01/15 04:15:28;;;;;;;14.82;6.38;;;;;;;;;;6262614;28;20028;-69
2022/01/15 04:18:35;;;;;;;26.80;10.13;;;;;;;;;;6260831;28;20091;-69
2022/01/15 04:21:36;;;;;;;18.63;8.98;;;;;;;;;;6254381;28;20030;-69
2022/01/15 04:24:36;;;;;;;30.50;9.27;;;;;;;;;;6243378;28;20436;-69
2022/01/15 04:27:38;;;;;;;15.05;7.60;;;;;;;;;;6249053;28;20049;-69
2022/01/15 04:30:41;;;;;;;20.13;8.98;;;;;;;;;;6242845;28;20389;-69
2022/01/15 04:33:41;;;;;;;34.10;11.23;;;;;;;;;;6243069;28;20041;-69
2022/01/15 04:36:42;;;;;;;17.17;6.53;;;;;;;;;;6259289;28;20087;-69
2022/01/15 04:39:43;;;;;;;18.55;9.45;;;;;;;;;;6267425;28;20234;-69
2022/01/15 04:42:43;;;;;;;26.52;10.27;;;;;;;;;;6268225;28;20468;-69
2022/01/15 04:45:43;;;;;;;19.75;9.55;;;;;;;;;;6251670;28;20448;-69
2022/01/15 04:48:44;;;;;;;31.98;8.98;;;;;;;;;;6258290;28;20024;-69
2022/01/15 04:51:44;;;;;;;26.98;9.70;;;;;;;;;;6267305;28;20032;-69
2022/01/15 04:54:44;;;;;;;24.80;9.07;;;;;;;;;;6267745;28;20059;-69
2022/01/15 04:57:44;;;;;;;20.42;8.10;;;;;;;;;;6266550;28;20017;-69
2022/01/15 05:00:45;;;;;;;12.50;6.57;;;;;;;;;;6254406;28;20062;-69
2022/01/15 05:03:45;;;;;;;24.10;8.50;;;;;;;;;;6264641;28;20043;-69
2022/01/15 05:06:45;;;;;;;23.52;8.80;;;;;;;;;;6267783;28;20028;-69
2022/01/15 05:09:46;;;;;;;20.50;8.15;;;;;;;;;;6266182;28;20036;-69
2022/01/15 05:12:48;;;;;;;32.30;9.38;;;;;;;;;;6265140;28;20492;-69
2022/01/15 05:15:48;;;;;;;;;;;;;;;;;;6267428;28;20035;-69
2022/01/15 05:18:48;;;;;;;28.27;9.45;;;;;;;;;;6260995;28;19909;-69
2022/01/15 05:21:49;;;;;;;19.48;10.05;;;;;;;;;;6250441;28;20021;-69
2022/01/15 05:24:49;;;;;;;29.38;11.85;;;;;;;;;;6247773;28;20056;-70
2022/01/15 05:27:51;;;;;;;32.17;12.23;;;;;;;;;;6252967;28;20036;-69
2022/01/15 05:30:51;;;;;;;;;;;;;;;;;;6258690;28;20035;-70
2022/01/15 05:33:51;;;;;;;22.88;11.25;;;;;;;;;;6272348;28;19959;-70
2022/01/15 05:36:52;;;;;;;35.05;17.77;;;;;;;;;;6272602;28;20059;-70
2022/01/15 05:39:52;;;;;;;28.92;13.93;;;;;;;;;;6272252;28;20166;-70
2022/01/15 05:42:53;;;;;;;41.28;17.20;;;;;;;;;;6271416;28;20036;-70
2022/01/15 05:45:53;;;;;;;32.85;16.85;;;;;;;;;;6254449;28;20025;-70
2022/01/15 05:48:53;;;;;;;30.15;11.65;;;;;;;;;;6247562;28;20029;-70
2022/01/15 05:51:54;;;;;;;27.58;13.32;;;;;;;;;;6263342;28;20024;-69
2022/01/15 05:54:54;;;;;;;31.50;12.70;;;;;;;;;;6259521;28;20167;-69
2022/01/15 05:57:54;;;;;;;29.15;10.88;;;;;;;;;;6261406;28;20035;-69
2022/01/15 06:00:54;;;;;;;18.45;8.27;;;;;;;;;;6258874;28;20318;-70
2022/01/15 06:03:55;;;;;;;32.17;11.82;;;;;;;;;;6257465;28;20021;-70
2022/01/15 06:06:55;;;;;;;26.42;14.00;;;;;;;;;;6260548;28;20017;-70
2022/01/15 06:09:55;;;;;;;30.15;14.13;;;;;;;;;;6258678;28;20029;-70
2022/01/15 06:12:55;;;;;;;20.13;9.05;;;;;;;;;;6259518;28;20021;-70
2022/01/15 06:15:56;;;;;;;20.90;10.30;;;;;;;;;;6256793;28;20060;-67
2022/01/15 06:18:56;;;;;;;35.85;13.98;;;;;;;;;;6246586;28;20021;-67
2022/01/15 06:21:56;;;;;;;22.85;9.13;;;;;;;;;;6249130;28;20028;-69
2022/01/15 06:24:56;;;;;;;22.92;9.88;;;;;;;;;;6246568;28;20520;-69
2022/01/15 06:27:57;;;;;;;36.38;15.38;;;;;;;;;;6250588;28;20036;-69
2022/01/15 06:30:57;;;;;;;39.25;15.95;;;;;;;;;;6245651;28;20471;-69
2022/01/15 06:33:58;;;;;;;31.88;13.00;;;;;;;;;;6261765;28;20052;-69
2022/01/15 06:36:58;;;;;;;36.40;14.05;;;;;;;;;;6270333;28;20025;-69
2022/01/15 06:39:58;;;;;;;34.10;15.70;;;;;;;;;;6268808;28;20108;-69
2022/01/15 06:43:00;;;;;;;31.45;11.13;;;;;;;;;;6268672;28;20392;-68
2022/01/15 06:46:00;;;;;;;26.88;12.40;;;;;;;;;;6252207;28;20508;-68
2022/01/15 06:49:00;;;;;;;21.23;10.20;;;;;;;;;;6247527;28;20037;-69
2022/01/15 06:52:01;;;;;;;17.15;7.75;;;;;;;;;;6260960;28;20029;-69
2022/01/15 06:55:02;;;;;;;18.40;8.98;;;;;;;;;;6254669;28;20021;-69
2022/01/15 06:58:02;;;;;;;16.95;10.80;;;;;;;;;;6266104;28;20082;-69
2022/01/15 07:01:03;;;;;;;22.98;10.13;;;;;;;;;;6264945;28;20041;-69
2022/01/15 07:04:03;;;;;;;15.98;7.75;;;;;;;;;;6254999;28;20029;-69
2022/01/15 07:07:03;;;;;;;21.05;10.70;;;;;;;;;;6263750;28;20024;-69
2022/01/15 07:10:04;;;;;;;25.55;8.05;;;;;;;;;;6260120;28;20025;-69
2022/01/15 07:13:08;;;;;;;21.33;9.18;;;;;;;;;;6245139;28;20025;-69
2022/01/15 07:16:08;;;;;;;26.38;9.95;;;;;;;;;;6258594;28;20025;-69
2022/01/15 07:19:08;;;;;;;23.92;10.02;;;;;;;;;;6260019;28;20025;-69
2022/01/15 07:22:09;;;;;;;24.70;8.30;;;;;;;;;;6254227;28;20031;-69
2022/01/15 07:25:09;;;;;;;25.80;12.27;;;;;;;;;;6256582;28;20515;-69
2022/01/15 07:28:10;;;;;;;31.05;11.73;;;;;;;;;;6264268;28;20441;-69
2022/01/15 07:31:10;;;;;;;81.15;35.55;;;;;;;;;;6259792;28;20559;-69
2022/01/15 07:34:11;;;;;;;82.75;31.98;;;;;;;;;;6252023;28;20125;-69
2022/01/15 07:37:11;;;;;;;50.60;18.23;;;;;;;;;;6264771;28;20356;-69
2022/01/15 07:40:11;;;;;;;40.88;15.43;;;;;;;;;;6268911;28;20190;-69
2022/01/15 07:43:12;;;;;;;26.02;9.10;;;;;;;;;;6269083;28;20024;-69
2022/01/15 07:46:12;;;;;;;28.25;11.35;;;;;;;;;;6249032;28;20060;-69
2022/01/15 07:49:12;;;;;;;28.27;12.23;;;;;;;;;;6252966;28;20048;-69
2022/01/15 07:52:13;;;;;;;50.00;23.40;;;;;;;;;;6256266;28;20057;-69
2022/01/15 07:55:13;;;;;;;40.72;14.55;;;;;;;;;;6254485;28;20043;-69
2022/01/15 07:58:14;;;;;;;40.63;15.98;;;;;;;;;;6248836;28;20021;-69
2022/01/15 08:01:14;;;;;;;58.35;25.60;;;;;;;;;;6262877;28;20036;-69
2022/01/15 08:04:14;;;;;;;43.63;18.38;;;;;;;;;;6251411;28;20095;-69
2022/01/15 08:07:16;;;;;;;32.92;11.27;;;;;;;;;;6244154;28;20022;-69
2022/01/15 08:10:16;;;;;;;38.17;14.30;;;;;;;;;;6249833;28;20071;-69
2022/01/15 08:13:18;;;;;;;51.50;22.40;;;;;;;;;;6256463;28;20017;-69
2022/01/15 08:16:19;;;;;;;62.00;23.95;;;;;;;;;;6248263;28;20084;-68
2022/01/15 08:19:19;;;;;;;27.13;10.55;;;;;;;;;;6254824;28;20393;-68
2022/01/15 08:22:19;;;;;;;63.75;27.00;;;;;;;;;;6261101;28;20049;-68
2022/01/15 08:25:22;;;;;;;54.05;21.35;;;;;;;;;;6251549;28;20017;-68
2022/01/15 08:28:23;;;;;;;53.58;19.60;;;;;;;;;;6254594;28;20018;-68
2022/01/15 08:31:23;;;;;;;44.90;21.43;;;;;;;;;;6253330;28;20486;-68
2022/01/15 08:34:24;;;;;;;29.92;13.68;;;;;;;;;;6255619;28;20044;-68
2022/01/15 08:37:24;;;;;;;28.98;12.75;;;;;;;;;;6255079;28;20028;-68
2022/01/15 08:40:24;;;;;;;33.00;15.30;;;;;;;;;;6260174;28;20481;-68
2022/01/15 08:43:24;;;;;;;43.60;15.85;;;;;;;;;;6251431;28;20040;-68
2022/01/15 08:46:25;;;;;;;27.15;11.75;;;;;;;;;;6242749;28;20029;-68
2022/01/15 08:49:25;;;;;;;25.27;11.85;;;;;;;;;;6267158;28;20108;-69
2022/01/15 08:52:25;;;;;;;21.35;9.48;;;;;;;;;;6266360;28;20028;-69
2022/01/15 08:55:28;;;;;;;33.13;14.77;;;;;;;;;;6266826;28;20021;-70
2022/01/15 08:58:29;;;;;;;31.60;13.48;;;;;;;;;;6267445;28;20032;-70
2022/01/15 09:01:30;;;;;;;72.28;29.80;;;;;;;;;;6245187;28;20504;-73
2022/01/15 09:04:30;;;;;;;154.07;75.65;;;;;;;;;;6251340;28;20505;-72
2022/01/15 09:07:30;;;;;;;31.13;13.05;;;;;;;;;;6255877;28;20073;-72
2022/01/15 09:10:31;;;;;;;44.17;19.77;;;;;;;;;;6252831;28;20022;-72
2022/01/15 09:13:31;;;;;;;23.55;10.40;;;;;;;;;;6251658;28;20542;-72
2022/01/15 09:16:32;;;;;;;23.40;11.85;;;;;;;;;;6250117;28;20483;-72
2022/01/15 09:19:33;;;;;;;27.45;12.13;;;;;;;;;;6256010;28;20022;-73
2022/01/15 09:22:33;;;;;;;24.60;12.57;;;;;;;;;;6248417;28;20143;-73
2022/01/15 09:25:33;;;;;;;67.15;28.63;;;;;;;;;;6247022;28;20065;-74
2022/01/15 09:31:52;;;;;;;49.65;21.58;;;;;;;;;;6255425;28;20034;-74
2022/01/15 09:34:52;;;;;;;29.20;9.45;;;;;;;;;;6261611;28;20083;-75
2022/01/15 09:37:53;;;;;;;29.95;12.73;;;;;;;;;;6253508;28;20024;-75
2022/01/15 09:40:54;;;;;;;64.35;23.52;;;;;;;;;;6250556;28;20095;-75
2022/01/15 09:43:55;;;;;;;19.15;6.53;;;;;;;;;;6251685;28;20845;-75
2022/01/15 09:46:55;;;;;;;18.88;7.90;;;;;;;;;;6256427;28;20045;-75
2022/01/15 09:49:56;;;;;;;91.07;37.30;;;;;;;;;;6256350;28;20031;-75
2022/01/15 09:52:57;;;;;;;47.40;23.02;;;;;;;;;;6267742;28;20013;-75
2022/01/15 09:55:57;;;;;;;46.50;17.85;;;;;;;;;;6264163;28;20017;-75
2022/01/15 09:59:00;;;;;;;45.97;17.77;;;;;;;;;;6252491;28;20043;-75
2022/01/15 10:02:03;;;;;;;42.70;20.40;;;;;;;;;;6254152;28;20061;-75
2022/01/15 10:05:03;;;;;;;28.45;11.75;;;;;;;;;;6262828;28;20025;-75
2022/01/15 10:08:05;;;;;;;21.45;11.20;;;;;;;;;;6247315;28;20026;-75
2022/01/15 10:11:11;;;;;;;27.42;11.43;;;;;;;;;;6260847;28;20056;-75
2022/01/15 10:14:25;;;;;;;36.33;14.23;;;;;;;;;;6252715;28;20067;-75
2022/01/15 10:17:26;;;;;;;38.45;12.75;;;;;;;;;;6248618;28;20021;-75
2022/01/15 10:20:34;;;;;;;18.30;7.57;;;;;;;;;;6245266;28;20009;-75
2022/01/15 10:23:43;;;;;;;32.47;15.45;;;;;;;;;;6250542;28;20495;-75
2022/01/15 10:26:43;;;;;;;46.30;18.20;;;;;;;;;;6250727;28;20524;-75
2022/01/15 10:29:50;;;;;;;34.00;13.30;;;;;;;;;;6261469;28;20094;-75
2022/01/15 10:32:59;;;;;;;24.48;11.73;;;;;;;;;;6269724;28;20032;-75
2022/01/15 10:36:00;;;;;;;26.48;13.32;;;;;;;;;;6257636;28;20037;-75
2022/01/15 10:39:20;;;;;;;26.70;13.65;;;;;;;;;;6254621;28;20147;-75
2022/01/15 10:42:23;;;;;;;27.77;13.15;;;;;;;;;;6250749;28;20075;-75
2022/01/15 10:45:24;;;;;;;23.55;10.07;;;;;;;;;;6249096;28;20068;-75
2022/01/15 10:48:29;;;;;;;23.25;11.10;;;;;;;;;;6246147;28;20048;-75
2022/01/15 10:51:29;;;;;;;25.85;10.60;;;;;;;;;;6259874;28;20389;-75
2022/01/15 10:54:29;;;;;;;28.95;9.77;;;;;;;;;;6253079;28;20028;-75
2022/01/15 10:57:34;;;;;;;35.67;15.68;;;;;;;;;;6254976;28;20062;-75
2022/01/15 11:00:39;;;;;;;40.35;14.60;;;;;;;;;;6268407;28;20534;-75
2022/01/15 11:03:40;;;;;;;35.17;16.13;;;;;;;;;;6267955;28;20047;-75
2022/01/15 11:06:41;;;;;;;30.27;13.10;;;;;;;;;;6270013;28;20025;-75
2022/01/15 11:09:42;;;;;;;32.67;12.85;;;;;;;;;;6262228;28;20288;-76
2022/01/15 11:12:43;;;;;;;30.60;12.85;;;;;;;;;;6247611;28;20079;-76
2022/01/15 11:15:45;;;;;;;33.13;13.45;;;;;;;;;;6245108;28;20075;-76
2022/01/15 11:18:45;;;;;;;;;;;;;;;;;;6256145;28;20087;-75
2022/01/15 11:21:45;;;;;;;32.38;14.63;;;;;;;;;;6255030;28;19913;-75
2022/01/15 11:24:46;;;;;;;25.58;11.27;;;;;;;;;;6252684;28;20021;-76
2022/01/15 11:27:46;;;;;;;33.05;9.90;;;;;;;;;;6250505;28;20120;-75
2022/01/15 11:30:47;;;;;;;25.75;12.82;;;;;;;;;;6244362;28;20025;-75
2022/01/15 11:33:52;;;;;;;17.20;8.70;;;;;;;;;;6257530;28;20124;-75
2022/01/15 11:36:52;;;;;;;30.35;15.45;;;;;;;;;;6247632;28;20272;-75
2022/01/15 11:39:55;;;;;;;41.25;18.45;;;;;;;;;;6250019;28;20067;-75
2022/01/15 11:42:55;;;;;;;72.45;30.52;;;;;;;;;;6250601;28;20030;-75
2022/01/15 11:45:57;;;;;;;50.67;19.48;;;;;;;;;;6244187;28;20381;-75
2022/01/15 11:49:16;;;;;;;62.63;23.58;;;;;;;;;;6249163;28;20102;-75
2022/01/15 11:52:21;;;;;;;22.25;10.05;;;;;;;;;;6252189;28;20472;-75
2022/01/15 11:55:24;;;;;;;26.83;10.43;;;;;;;;;;6250638;28;20070;-75
2022/01/15 11:58:24;;;;;;;129.90;49.70;;;;;;;;;;6246589;28;20009;-75
2022/01/15 12:01:42;;;;;;;106.35;40.95;;;;;;;;;;6252037;28;20021;-75
2022/01/15 12:04:43;;;;;;;40.60;15.50;;;;;;;;;;6251908;28;20013;-75
2022/01/15 12:07:43;;;;;;;96.07;39.22;;;;;;;;;;6251663;28;20021;-75
2022/01/15 12:10:51;;;;;;;18.40;8.90;;;;;;;;;;6251087;28;20040;-75
2022/01/15 12:13:52;;;;;;;18.25;9.18;;;;;;;;;;6248968;28;20021;-75
2022/01/15 12:16:52;;;;;;;26.60;9.65;;;;;;;;;;6247455;28;20374;-75
2022/01/15 12:19:53;;;;;;;34.95;13.27;;;;;;;;;;6242435;28;20017;-75
2022/01/15 12:22:58;;;;;;;69.03;27.43;;;;;;;;;;6244468;28;20053;-75
2022/01/15 12:25:58;;;;;;;25.90;8.38;;;;;;;;;;6243375;28;20024;-75
2022/01/15 12:28:58;;;;;;;25.20;9.18;;;;;;;;;;6250941;28;20039;-75
2022/01/15 12:31:58;;;;;;;24.38;9.68;;;;;;;;;;6252076;28;20017;-74
2022/01/15 12:34:59;;;;;;;62.78;26.23;;;;;;;;;;6251251;28;20515;-75
2022/01/15 12:38:06;;;;;;;34.38;13.68;;;;;;;;;;6247505;28;20075;-74
2022/01/15 12:41:06;;;;;;;46.08;19.27;;;;;;;;;;6250278;28;20086;-75
2022/01/15 12:44:06;;;;;;;70.60;28.40;;;;;;;;;;6248614;28;20537;-74
2022/01/15 12:47:07;;;;;;;24.58;10.07;;;;;;;;;;6253210;28;20501;-75
2022/01/15 12:50:07;;;;;;;40.75;14.63;;;;;;;;;;6251703;28;20268;-74
2022/01/15 12:53:07;;;;;;;43.55;16.73;;;;;;;;;;6246517;28;20025;-75
2022/01/15 12:56:09;;;;;;;44.50;15.15;;;;;;;;;;6242402;28;20018;-75
2022/01/15 12:59:09;;;;;;;33.97;12.65;;;;;;;;;;6242581;28;20039;-75
2022/01/15 13:02:09;;;;;;;85.20;34.15;;;;;;;;;;6253872;28;20017;-75
2022/01/15 13:05:11;;;;;;;18.33;7.03;;;;;;;;;;6256527;28;20021;-75
2022/01/15 13:08:13;;;;;;;19.80;8.20;;;;;;;;;;6256108;28;20017;-75
2022/01/15 13:14:14;;;;;;;42.53;16.05;;;;;;;;;;6255433;28;20478;-75
2022/01/15 13:17:20;;;;;;;74.55;35.35;;;;;;;;;;6254126;28;20473;-75
2022/01/15 13:20:32;;;;;;;21.20;10.23;;;;;;;;;;6256363;28;20674;-75
2022/01/15 13:23:38;;;;;;;18.30;8.50;;;;;;;;;;6258162;28;20060;-74
2022/01/15 13:26:39;;;;;;;34.67;10.90;;;;;;;;;;6257346;28;20026;-75
2022/01/15 13:29:40;;;;;;;27.00;9.18;;;;;;;;;;6255807;28;20033;-74
2022/01/15 13:33:13;;;;;;;31.10;8.73;;;;;;;;;;6259603;28;20032;-74
2022/01/15 13:36:15;;;;;;;31.23;8.57;;;;;;;;;;6224602;28;20310;-74
2022/01/15 13:39:16;;;;;;;14.68;7.47;;;;;;;;;;6256265;28;20415;-75
2022/01/15 13:42:18;;;;;;;20.63;10.52;;;;;;;;;;6246872;28;20056;-75
2022/01/15 13:45:18;;;;;;;;;;;;;;;;;;6252628;28;20295;-75
2022/01/15 13:48:23;;;;;;;25.25;10.48;;;;;;;;;;6253891;28;19904;-75
2022/01/15 13:54:59;;;;;;;26.35;8.80;;;;;;;;;;6250491;28;20385;-74
2022/01/15 13:58:13;;;;;;;31.73;13.00;;;;;;;;;;6256247;28;20036;-74
2022/01/15 14:01:16;;;;;;;21.88;9.32;;;;;;;;;;6258323;28;20049;-74
2022/01/15 14:04:20;;;;;;;24.55;8.10;;;;;;;;;;6268160;28;20033;-74
2022/01/15 14:07:25;;;;;;;28.98;9.60;;;;;;;;;;6250878;28;20283;-74
2022/01/15 14:10:26;;;;;;;29.45;12.75;;;;;;;;;;6255394;28;20461;-74
2022/01/15 14:13:29;;;;;;;23.52;7.93;;;;;;;;;;6254609;28;20025;-74
2022/01/15 14:16:29;;;;;;;20.00;7.70;;;;;;;;;;6249762;28;20100;-74
2022/01/15 14:20:15;;;;;;;22.73;9.60;;;;;;;;;;6259214;28;20017;-74
2022/01/15 14:23:25;;;;;;;58.40;25.95;;;;;;;;;;6266211;28;20104;-75
2022/01/15 14:26:28;;;;;;;38.13;17.90;;;;;;;;;;6261686;28;20369;-75
2022/01/15 14:29:28;;;;;;;44.65;19.63;;;;;;;;;;6255675;28;20079;-75
2022/01/15 14:32:28;;;;;;;34.35;12.15;;;;;;;;;;6264714;28;20491;-75
2022/01/15 14:35:29;;;;;;;35.95;13.15;;;;;;;;;;6255720;28;20080;-75
2022/01/15 14:38:29;;;;;;;34.00;12.52;;;;;;;;;;6254277;28;20084;-74
2022/01/15 14:41:33;;;;;;;31.48;13.40;;;;;;;;;;6248563;28;20025;-74
2022/01/15 14:44:34;;;;;;;31.67;10.48;;;;;;;;;;6250909;28;20032;-74
2022/01/15 14:47:34;;;;;;;46.22;18.50;;;;;;;;;;6254397;28;20036;-74
2022/01/15 14:50:34;;;;;;;43.80;16.35;;;;;;;;;;6255568;28;20021;-74
2022/01/15 14:53:35;;;;;;;66.97;29.90;;;;;;;;;;6251724;28;20064;-74
2022/01/15 14:56:35;;;;;;;104.78;36.92;;;;;;;;;;6247111;28;20384;-75
2022/01/15 14:59:36;;;;;;;107.95;39.38;;;;;;;;;;6261401;28;20226;-74
2022/01/15 15:02:39;;;;;;;85.70;30.58;;;;;;;;;;6258718;28;20024;-74
2022/01/15 15:05:39;;;;;;;94.35;37.72;;;;;;;;;;6257100;28;20500;-74
2022/01/15 15:08:40;;;;;;;100.78;40.53;;;;;;;;;;6247064;28;20112;-74
2022/01/15 15:11:40;;;;;;;118.80;46.10;;;;;;;;;;6257304;28;20021;-75
2022/01/15 15:14:40;;;;;;;160.85;53.00;;;;;;;;;;6253176;28;20009;-75
2022/01/15 15:17:41;;;;;;;203.63;69.63;;;;;;;;;;6248782;28;20473;-73
2022/01/15 15:20:41;;;;;;;225.30;85.10;;;;;;;;;;6255979;28;20493;-73
2022/01/15 15:23:41;;;;;;;248.93;91.82;;;;;;;;;;6254707;28;20047;-73
2022/01/15 15:26:42;;;;;;;216.80;79.55;;;;;;;;;;6255738;28;20040;-73
2022/01/15 15:29:42;;;;;;;216.13;76.30;;;;;;;;;;6251246;28;20022;-73
2022/01/15 15:32:42;;;;;;;216.02;73.63;;;;;;;;;;6251897;28;20394;-73
2022/01/15 15:35:42;;;;;;;204.20;69.03;;;;;;;;;;6257290;28;20033;-73
2022/01/15 15:38:43;;;;;;;161.18;60.10;;;;;;;;;;6255869;28;20469;-73
2022/01/15 15:41:43;;;;;;;170.55;65.53;;;;;;;;;;6251282;28;20025;-73
2022/01/15 15:44:43;;;;;;;175.23;70.30;;;;;;;;;;6244063;28;20021;-73
2022/01/15 15:47:44;;;;;;;96.65;43.35;;;;;;;;;;6249696;28;20028;-73
2022/01/15 15:50:45;;;;;;;87.18;36.70;;;;;;;;;;6262080;28;20028;-73
2022/01/15 15:53:45;;;;;;;86.72;36.78;;;;;;;;;;6242836;28;20021;-73
2022/01/15 15:56:45;;;;;;;97.93;43.30;;;;;;;;;;6253708;28;20013;-73
2022/01/15 15:59:45;;;;;;;183.85;71.68;;;;;;;;;;6245915;28;20143;-73
2022/01/15 16:02:47;;;;;;;175.07;68.20;;;;;;;;;;6245735;28;20025;-72
2022/01/15 16:05:48;;;;;;;190.15;75.63;;;;;;;;;;6244918;28;20095;-72
2022/01/15 16:08:49;;;;;;;292.17;102.38;;;;;;;;;;6251296;28;20021;-72
2022/01/15 16:11:49;;;;;;;391.23;132.40;;;;;;;;;;6257313;28;20032;-72
2022/01/15 16:14:51;;;;;;;362.92;128.05;;;;;;;;;;6268081;28;20009;-72
2022/01/15 16:17:52;;;;;;;302.63;113.15;;;;;;;;;;6268597;28;20024;-72
2022/01/15 16:20:52;;;;;;;197.35;78.97;;;;;;;;;;6266522;28;20021;-71
2022/01/15 16:23:53;;;;;;;229.18;89.20;;;;;;;;;;6246537;28;20021;-71
2022/01/15 16:26:53;;;;;;;178.82;70.93;;;;;;;;;;6250485;28;20389;-71
2022/01/15 16:29:53;;;;;;;166.32;70.45;;;;;;;;;;6253390;28;20025;-72
2022/01/15 16:32:53;;;;;;;237.32;92.72;;;;;;;;;;6254018;28;20037;-71
2022/01/15 16:35:54;;;;;;;218.65;90.25;;;;;;;;;;6242533;28;20067;-71
2022/01/15 16:38:54;;;;;;;167.05;66.82;;;;;;;;;;6263047;28;20416;-71
2022/01/15 16:41:55;;;;;;;132.77;54.83;;;;;;;;;;6254201;28;20048;-71
2022/01/15 16:44:55;;;;;;;120.07;50.72;;;;;;;;;;6260639;28;20025;-71
2022/01/15 16:47:55;;;;;;;126.65;50.95;;;;;;;;;;6248071;28;20025;-70
2022/01/15 16:50:55;;;;;;;140.48;53.40;;;;;;;;;;6252997;28;20021;-70
2022/01/15 16:53:56;;;;;;;140.32;61.28;;;;;;;;;;6253937;28;20025;-70
2022/01/15 16:56:56;;;;;;;128.30;51.45;;;;;;;;;;6255390;28;20014;-70
2022/01/15 16:59:56;;;;;;;129.70;50.78;;;;;;;;;;6246773;28;20021;-70
2022/01/15 17:02:57;;;;;;;142.02;53.30;;;;;;;;;;6258713;28;20491;-70
2022/01/15 17:05:57;;;;;;;139.40;58.88;;;;;;;;;;6266896;28;20074;-69
2022/01/15 17:08:58;;;;;;;137.40;61.15;;;;;;;;;;6262413;28;20073;-69
2022/01/15 17:11:58;;;;;;;135.32;59.83;;;;;;;;;;6254827;28;20032;-69
2022/01/15 17:14:58;;;;;;;135.98;60.42;;;;;;;;;;6257757;28;20014;-69
2022/01/15 17:17:59;;;;;;;187.50;89.57;;;;;;;;;;6251560;28;20684;-69
2022/01/15 17:20:59;;;;;;;276.83;118.00;;;;;;;;;;6251253;28;20021;-69
2022/01/15 17:23:59;;;;;;;244.27;119.70;;;;;;;;;;6267115;28;20482;-69
2022/01/15 17:26:59;;;;;;;250.40;119.53;;;;;;;;;;6259360;28;20446;-69
2022/01/15 17:30:00;;;;;;;239.30;120.80;;;;;;;;;;6246130;28;20052;-69
2022/01/15 17:33:00;;;;;;;170.35;85.43;;;;;;;;;;6247750;28;20038;-69
2022/01/15 17:36:01;;;;;;;206.75;100.78;;;;;;;;;;6256010;28;20140;-69
2022/01/15 17:39:02;;;;;;;149.38;69.13;;;;;;;;;;6256085;28;20040;-69
2022/01/15 17:42:03;;;;;;;119.57;52.03;;;;;;;;;;6245138;28;20087;-69
2022/01/15 17:45:03;;;;;;;117.45;48.70;;;;;;;;;;6256532;28;20267;-69
2022/01/15 17:48:04;;;;;;;124.88;45.33;;;;;;;;;;6257512;28;20029;-70
2022/01/15 17:51:04;;;;;;;99.40;38.55;;;;;;;;;;6257181;28;20032;-69
2022/01/15 17:54:04;;;;;;;100.13;41.30;;;;;;;;;;6271478;28;20017;-69
2022/01/15 17:57:04;;;;;;;104.55;43.70;;;;;;;;;;6266055;28;20370;-69
2022/01/15 18:00:06;;;;;;;125.65;52.25;;;;;;;;;;6270684;28;20015;-69
2022/01/15 18:03:07;;;;;;;101.72;45.90;;;;;;;;;;6265315;28;20078;-69
2022/01/15 18:06:07;;;;;;;118.15;49.80;;;;;;;;;;6269001;28;20074;-69
2022/01/15 18:09:07;;;;;;;156.35;77.40;;;;;;;;;;6265040;28;20477;-70
2022/01/15 18:12:09;;;;;;;126.78;56.13;;;;;;;;;;6246798;28;20397;-69